createdAt,value
2019-04-29T00:00:09.976Z,7.45
2019-04-29T00:02:42.980Z,7.03
2019-04-29T00:05:14.618Z,9.37
2019-04-29T00:07:45.999Z,7.47
2019-04-29T00:10:20.419Z,8.83
2019-04-29T00:12:51.707Z,6.97
2019-04-29T00:15:32.446Z,11.40
2019-04-29T00:18:07.433Z,7.28
2019-04-29T00:20:45.435Z,7.25
2019-04-29T00:23:16.799Z,8.75
2019-04-29T00:25:48.081Z,7.97
2019-04-29T00:28:19.359Z,8.30
2019-04-29T00:30:50.693Z,9.25
2019-04-29T00:33:21.963Z,7.87
2019-04-29T00:35:53.363Z,8.98
2019-04-29T00:38:39.891Z,8.93
2019-04-29T00:41:35.257Z,8.38
2019-04-29T00:44:09.484Z,8.08
2019-04-29T00:46:40.835Z,8.78
2019-04-29T00:49:12.199Z,10.33
2019-04-29T00:51:43.445Z,11.60
2019-04-29T00:54:21.699Z,7.47
2019-04-29T00:56:53.010Z,9.58
2019-04-29T00:59:24.355Z,7.70
2019-04-29T01:01:55.762Z,8.08
2019-04-29T01:04:27.084Z,7.92
2019-04-29T01:06:58.437Z,8.00
2019-04-29T01:09:30.519Z,9.40
2019-04-29T01:12:01.924Z,8.95
2019-04-29T01:14:34.253Z,10.78
2019-04-29T01:17:05.575Z,8.18
2019-04-29T01:19:36.815Z,7.35
2019-04-29T01:22:08.023Z,9.05
2019-04-29T01:24:39.328Z,8.30
2019-04-29T01:27:34.715Z,9.25
2019-04-29T01:30:07.755Z,7.68
2019-04-29T01:32:39.244Z,9.80
2019-04-29T01:35:10.575Z,8.73
2019-04-29T01:37:43.065Z,8.63
2019-04-29T01:40:25.880Z,8.37
2019-04-29T01:42:57.160Z,8.35
2019-04-29T01:45:28.410Z,8.85
2019-04-29T01:47:59.685Z,8.38
2019-04-29T01:50:31.019Z,9.03
2019-04-29T01:53:02.203Z,12.33
2019-04-29T01:55:33.549Z,10.63
2019-04-29T01:58:04.761Z,10.85
2019-04-29T02:00:36.179Z,9.33
2019-04-29T02:03:07.586Z,8.90
2019-04-29T02:05:38.812Z,9.73
2019-04-29T02:08:10.180Z,8.83
2019-04-29T02:10:41.601Z,10.18
2019-04-29T02:13:12.863Z,9.53
2019-04-29T02:15:44.211Z,10.43
2019-04-29T02:18:15.579Z,10.17
2019-04-29T02:20:46.845Z,9.78
2019-04-29T02:23:49.338Z,12.18
2019-04-29T02:26:20.642Z,10.60
2019-04-29T02:28:51.946Z,12.97
2019-04-29T02:31:43.165Z,10.87
2019-04-29T02:34:14.434Z,9.03
2019-04-29T02:36:45.708Z,9.85
2019-04-29T02:39:37.651Z,9.73
2019-04-29T02:42:27.913Z,10.32
2019-04-29T02:45:03.578Z,9.93
2019-04-29T02:47:34.827Z,9.95
2019-04-29T02:50:07.215Z,10.14
2019-04-29T02:52:38.544Z,9.43
2019-04-29T02:55:12.012Z,9.95
2019-04-29T02:58:05.285Z,10.25
2019-04-29T03:01:01.894Z,10.80
2019-04-29T03:03:52.529Z,11.00
2019-04-29T03:06:23.842Z,10.28
2019-04-29T03:08:55.122Z,10.00
2019-04-29T03:11:26.419Z,11.80
2019-04-29T03:13:57.704Z,12.93
2019-04-29T03:16:31.101Z,10.88
2019-04-29T03:19:06.728Z,11.15
2019-04-29T03:22:02.994Z,10.30
2019-04-29T03:24:34.222Z,14.78
2019-04-29T03:27:06.684Z,12.76
2019-04-29T03:29:38.009Z,15.72
2019-04-29T03:32:09.281Z,15.08
2019-04-29T03:34:40.581Z,15.93
2019-04-29T03:37:11.913Z,14.53
2019-04-29T03:39:43.181Z,18.55
2019-04-29T03:42:14.509Z,15.78
2019-04-29T03:44:45.901Z,19.65
2019-04-29T03:47:18.937Z,16.70
2019-04-29T03:49:51.589Z,16.42
2019-04-29T03:52:22.852Z,14.90
2019-04-29T03:54:54.127Z,16.15
2019-04-29T03:57:25.359Z,16.30
2019-04-29T03:59:57.195Z,15.50
2019-04-29T04:02:47.537Z,18.27
2019-04-29T04:05:28.867Z,16.17
2019-04-29T04:08:25.190Z,17.40
2019-04-29T04:10:56.442Z,34.73
2019-04-29T04:13:27.722Z,13.83
2019-04-29T04:15:59.036Z,14.63
2019-04-29T04:18:31.824Z,12.68
2019-04-29T04:21:03.168Z,23.30
2019-04-29T04:23:34.416Z,12.78
2019-04-29T04:26:05.700Z,12.30
2019-04-29T04:28:36.987Z,12.13
2019-04-29T04:31:08.348Z,10.55
2019-04-29T04:33:39.796Z,12.40
2019-04-29T04:36:11.110Z,9.98
2019-04-29T04:38:42.354Z,12.93
2019-04-29T04:41:13.638Z,10.75
2019-04-29T04:43:44.959Z,88.15
2019-04-29T04:46:16.267Z,19.90
2019-04-29T04:48:47.529Z,10.10
2019-04-29T04:51:18.881Z,10.53
2019-04-29T04:53:50.190Z,9.88
2019-04-29T04:56:21.476Z,29.00
2019-04-29T04:58:52.713Z,11.08
2019-04-29T05:01:24.010Z,11.30
2019-04-29T05:03:55.374Z,8.90
2019-04-29T05:06:26.783Z,8.38
2019-04-29T05:08:58.178Z,8.08
2019-04-29T05:11:29.508Z,8.23
2019-04-29T05:14:00.793Z,7.25
2019-04-29T05:16:32.115Z,8.68
2019-04-29T05:19:03.540Z,7.45
2019-04-29T05:21:34.780Z,7.70
2019-04-29T05:24:06.128Z,7.53
2019-04-29T05:26:37.395Z,7.28
2019-04-29T05:29:08.734Z,7.42
2019-04-29T05:31:40.059Z,6.70
2019-04-29T05:34:12.156Z,8.58
2019-04-29T05:37:05.149Z,6.03
2019-04-29T05:39:38.787Z,6.65
2019-04-29T05:42:16.278Z,6.20
2019-04-29T05:44:48.647Z,10.58
2019-04-29T05:47:23.285Z,6.85
2019-04-29T05:50:16.911Z,7.60
2019-04-29T05:52:51.650Z,6.47
2019-04-29T05:55:22.878Z,6.30
2019-04-29T05:58:03.047Z,6.70
2019-04-29T06:00:30.024Z,5.85
2019-04-29T06:03:01.429Z,6.33
2019-04-29T06:05:32.701Z,6.80
2019-04-29T06:08:04.119Z,6.78
2019-04-29T06:10:35.527Z,7.10
2019-04-29T06:13:06.800Z,10.48
2019-04-29T06:15:38.028Z,7.40
2019-04-29T06:18:09.352Z,8.50
2019-04-29T06:20:40.622Z,8.53
2019-04-29T06:23:11.955Z,7.37
2019-04-29T06:25:43.214Z,7.83
2019-04-29T06:28:14.474Z,8.05
2019-04-29T06:30:50.255Z,8.83
2019-04-29T06:33:19.136Z,9.43
2019-04-29T06:35:50.396Z,9.38
2019-04-29T06:38:21.700Z,8.20
2019-04-29T06:40:53.068Z,11.20
2019-04-29T06:43:28.417Z,8.00
2019-04-29T06:45:57.577Z,9.60
2019-04-29T06:48:28.866Z,9.90
2019-04-29T06:51:00.111Z,10.43
2019-04-29T06:53:31.419Z,12.10
2019-04-29T06:56:02.714Z,10.32
2019-04-29T06:58:36.591Z,10.63
2019-04-29T07:01:07.059Z,11.53
2019-04-29T07:03:38.429Z,11.50
2019-04-29T07:06:09.832Z,8.95
2019-04-29T07:08:41.157Z,11.15
2019-04-29T07:11:12.436Z,12.70
2019-04-29T07:13:46.483Z,11.03
2019-04-29T07:16:17.177Z,13.60
2019-04-29T07:18:53.561Z,10.43
2019-04-29T07:21:22.566Z,10.93
2019-04-29T07:23:53.834Z,11.93
2019-04-29T07:26:25.107Z,12.53
2019-04-29T07:28:56.379Z,14.27
2019-04-29T07:31:28.419Z,15.00
2019-04-29T07:34:00.719Z,13.15
2019-04-29T07:36:32.041Z,14.13
2019-04-29T07:39:03.767Z,12.13
2019-04-29T07:41:35.806Z,11.60
2019-04-29T07:44:07.407Z,12.75
2019-04-29T07:46:56.684Z,12.53
2019-04-29T07:49:24.293Z,11.38
2019-04-29T07:51:55.750Z,12.10
2019-04-29T07:54:27.053Z,11.38
2019-04-29T07:56:58.333Z,12.30
2019-04-29T07:59:29.611Z,10.68
2019-04-29T08:02:01.415Z,16.00
2019-04-29T08:04:32.806Z,13.35
2019-04-29T08:07:04.218Z,10.60
2019-04-29T08:09:35.621Z,14.00
2019-04-29T08:12:07.158Z,10.50
2019-04-29T08:14:39.638Z,11.48
2019-04-29T08:17:10.907Z,13.20
2019-04-29T08:19:42.196Z,13.38
2019-04-29T08:22:17.819Z,10.10
2019-04-29T08:24:50.397Z,11.95
2019-04-29T08:27:19.491Z,11.18
2019-04-29T08:29:51.869Z,10.53
2019-04-29T08:32:23.132Z,11.45
2019-04-29T08:34:57.965Z,9.40
2019-04-29T08:37:27.484Z,9.43
2019-04-29T08:40:14.858Z,9.33
2019-04-29T08:42:37.248Z,11.10
2019-04-29T08:45:15.829Z,10.72
2019-04-29T08:47:47.877Z,11.53
2019-04-29T08:50:19.303Z,10.93
2019-04-29T08:52:50.575Z,13.10
2019-04-29T08:55:22.221Z,10.43
2019-04-29T08:57:54.028Z,12.23
2019-04-29T09:00:25.851Z,13.65
2019-04-29T09:02:57.758Z,12.05
2019-04-29T09:05:29.695Z,9.83
2019-04-29T09:08:01.502Z,11.22
2019-04-29T09:10:36.850Z,12.70
2019-04-29T09:13:07.671Z,10.70
2019-04-29T09:15:39.467Z,10.90
2019-04-29T09:18:11.459Z,10.57
2019-04-29T09:20:44.297Z,11.85
2019-04-29T09:23:18.563Z,10.38
2019-04-29T09:26:08.157Z,14.98
2019-04-29T09:28:39.963Z,11.90
2019-04-29T09:31:11.876Z,11.72
2019-04-29T09:33:44.209Z,11.63
2019-04-29T09:36:17.310Z,11.85
2019-04-29T09:38:49.072Z,13.55
2019-04-29T09:41:45.531Z,12.60
2019-04-29T09:44:44.914Z,13.03
2019-04-29T09:47:16.605Z,14.25
2019-04-29T09:49:48.550Z,12.95
2019-04-29T09:52:20.174Z,10.77
2019-04-29T09:54:52.173Z,13.95
2019-04-29T09:57:29.446Z,12.88
2019-04-29T10:00:07.102Z,13.62
2019-04-29T10:02:48.781Z,13.32
2019-04-29T10:05:36.691Z,12.50
2019-04-29T10:08:07.976Z,13.38
2019-04-29T10:10:40.899Z,13.58
2019-04-29T10:13:12.482Z,12.33
2019-04-29T10:15:51.079Z,15.13
2019-04-29T10:18:44.760Z,12.13
2019-04-29T10:21:21.517Z,12.03
2019-04-29T10:23:49.574Z,11.23
2019-04-29T10:26:21.212Z,11.60
2019-04-29T10:28:59.676Z,11.08
2019-04-29T10:31:30.949Z,9.88
2019-04-29T10:34:02.768Z,11.00
2019-04-29T10:36:34.468Z,12.63
2019-04-29T10:39:36.897Z,10.48
2019-04-29T10:42:09.096Z,9.90
2019-04-29T10:44:59.400Z,9.93
2019-04-29T10:47:48.331Z,11.28
2019-04-29T10:50:25.150Z,11.55
2019-04-29T10:52:56.629Z,9.63
2019-04-29T10:55:30.077Z,9.10
2019-04-29T10:58:01.267Z,12.28
2019-04-29T11:01:31.035Z,9.93
2019-04-29T11:04:02.735Z,10.35
2019-04-29T11:06:35.975Z,9.45
2019-04-29T11:09:50.725Z,8.90
2019-04-29T11:12:20.387Z,10.32
2019-04-29T11:14:51.726Z,9.80
2019-04-29T11:17:25.340Z,10.63
2019-04-29T11:19:56.938Z,9.68
2019-04-29T11:22:33.905Z,10.05
2019-04-29T11:25:27.313Z,11.70
2019-04-29T11:27:59.178Z,12.13
2019-04-29T11:30:34.872Z,13.65
2019-04-29T11:33:21.603Z,12.15
2019-04-29T11:36:06.746Z,11.03
2019-04-29T11:38:38.651Z,11.75
2019-04-29T11:41:12.310Z,13.28
2019-04-29T11:43:46.625Z,14.43
2019-04-29T11:46:16.370Z,13.55
2019-04-29T11:48:48.325Z,13.05
2019-04-29T11:51:34.249Z,13.45
2019-04-29T11:54:08.171Z,14.73
2019-04-29T11:56:39.730Z,14.95
2019-04-29T11:59:29.341Z,14.12
2019-04-29T12:02:12.435Z,14.10
2019-04-29T12:04:47.416Z,16.60
2019-04-29T12:07:21.150Z,16.10
2019-04-29T12:09:52.087Z,17.98
2019-04-29T12:12:23.772Z,18.02
2019-04-29T12:15:13.791Z,17.42
2019-04-29T12:17:57.800Z,17.67
2019-04-29T12:20:35.471Z,15.98
2019-04-29T12:23:11.099Z,16.73
2019-04-29T12:25:40.315Z,18.33
2019-04-29T12:28:18.801Z,19.66
2019-04-29T12:30:46.418Z,22.32
2019-04-29T12:33:22.701Z,17.47
2019-04-29T12:36:03.248Z,16.02
2019-04-29T12:38:51.492Z,18.60
2019-04-29T12:41:53.947Z,17.60
2019-04-29T12:44:35.477Z,21.10
2019-04-29T12:47:26.753Z,21.62
2019-04-29T12:49:56.351Z,19.55
2019-04-29T12:52:27.870Z,20.97
2019-04-29T12:55:03.091Z,21.73
2019-04-29T12:57:32.276Z,18.82
2019-04-29T13:00:07.633Z,21.10
2019-04-29T13:03:00.140Z,19.77
2019-04-29T13:05:57.973Z,21.85
2019-04-29T13:08:28.197Z,20.50
2019-04-29T13:11:02.235Z,25.30
2019-04-29T13:13:33.575Z,20.57
2019-04-29T13:16:23.936Z,22.82
2019-04-29T13:19:11.653Z,21.40
2019-04-29T13:21:39.312Z,21.25
2019-04-29T13:24:23.096Z,22.93
2019-04-29T13:26:43.279Z,22.50
2019-04-29T13:29:26.928Z,21.80
2019-04-29T13:31:48.196Z,25.32
2019-04-29T13:34:30.937Z,21.80
2019-04-29T13:37:07.315Z,26.42
2019-04-29T13:39:39.605Z,23.13
2019-04-29T13:42:10.841Z,26.20
2019-04-29T13:44:42.572Z,22.13
2019-04-29T13:47:42.690Z,27.67
2019-04-29T13:50:38.267Z,26.55
2019-04-29T13:52:55.976Z,24.65
2019-04-29T13:55:47.231Z,23.98
2019-04-29T13:58:02.776Z,22.62
2019-04-29T14:00:43.940Z,23.35
2019-04-29T14:03:20.560Z,24.27
2019-04-29T14:06:03.593Z,26.17
2019-04-29T14:08:28.655Z,23.52
2019-04-29T14:10:59.450Z,35.83
2019-04-29T14:13:31.053Z,25.52
2019-04-29T14:16:02.754Z,23.92
2019-04-29T14:18:35.095Z,26.40
2019-04-29T14:21:11.954Z,25.25
2019-04-29T14:23:42.564Z,27.67
2019-04-29T14:26:14.310Z,26.12
2019-04-29T14:28:45.803Z,30.45
2019-04-29T14:31:18.708Z,29.07
2019-04-29T14:34:17.370Z,27.13
2019-04-29T14:36:47.779Z,29.17
2019-04-29T14:39:36.183Z,28.05
2019-04-29T14:41:57.142Z,29.05
2019-04-29T14:44:47.910Z,30.60
2019-04-29T14:47:41.107Z,32.75
2019-04-29T14:50:15.570Z,32.13
2019-04-29T14:52:49.333Z,32.13
2019-04-29T14:55:24.980Z,30.70
2019-04-29T14:57:53.245Z,32.88
2019-04-29T15:00:47.173Z,31.17
2019-04-29T15:03:22.914Z,33.90
2019-04-29T15:05:54.687Z,30.52
2019-04-29T15:08:26.518Z,31.60
2019-04-29T15:10:58.302Z,31.25
2019-04-29T15:13:30.372Z,40.00
2019-04-29T15:16:09.647Z,34.45
2019-04-29T15:18:50.882Z,34.18
2019-04-29T15:21:42.435Z,34.48
2019-04-29T15:24:09.124Z,34.48
2019-04-29T15:26:40.816Z,34.27
2019-04-29T15:29:12.793Z,38.55
2019-04-29T15:31:47.054Z,34.08
2019-04-29T15:34:18.163Z,39.17
2019-04-29T15:36:51.702Z,36.50
2019-04-29T15:39:25.446Z,37.80
2019-04-29T15:41:56.642Z,37.28
2019-04-29T15:44:28.503Z,37.93
2019-04-29T15:47:00.235Z,36.48
2019-04-29T15:49:31.947Z,38.27
2019-04-29T15:52:03.597Z,38.45
2019-04-29T15:54:35.319Z,39.50
2019-04-29T15:57:09.088Z,40.23
2019-04-29T15:59:48.604Z,41.33
2019-04-29T16:02:13.946Z,39.92
2019-04-29T16:04:51.920Z,39.63
2019-04-29T16:07:55.652Z,41.90
2019-04-29T16:10:45.670Z,36.63
2019-04-29T16:13:17.359Z,38.33
2019-04-29T16:15:48.688Z,38.70
2019-04-29T16:18:19.990Z,41.47
2019-04-29T16:20:54.023Z,35.73
2019-04-29T16:23:24.220Z,38.60
2019-04-29T16:25:55.546Z,39.35
2019-04-29T16:28:31.805Z,38.63
2019-04-29T16:31:05.027Z,39.98
2019-04-29T16:33:34.023Z,40.03
2019-04-29T16:36:06.377Z,37.28
2019-04-29T16:38:37.699Z,34.60
2019-04-29T16:41:27.812Z,33.57
2019-04-29T16:43:59.363Z,32.23
2019-04-29T16:46:37.339Z,33.42
2019-04-29T16:49:04.626Z,36.77
2019-04-29T16:51:35.918Z,35.68
2019-04-29T16:54:07.426Z,32.60
2019-04-29T16:56:38.850Z,41.35
2019-04-29T16:59:10.215Z,35.73
2019-04-29T17:01:41.571Z,31.07
2019-04-29T17:04:12.901Z,33.47
2019-04-29T17:07:10.662Z,35.33
2019-04-29T17:09:39.022Z,38.63
2019-04-29T17:12:10.394Z,36.00
2019-04-29T17:17:18.636Z,37.13
2019-04-29T17:19:50.078Z,32.58
2019-04-29T17:22:26.863Z,31.60
2019-04-29T17:24:54.590Z,30.68
2019-04-29T17:27:47.859Z,31.83
2019-04-29T17:30:46.732Z,36.73
2019-04-29T17:33:27.989Z,32.75
2019-04-29T17:35:18.037Z,30.02
2019-04-29T17:35:54.527Z,31.43
2019-04-29T17:38:25.849Z,31.55
2019-04-29T17:40:57.149Z,32.50
2019-04-29T17:43:47.389Z,33.40
2019-04-29T17:46:36.378Z,30.63
2019-04-29T17:49:29.509Z,30.20
2019-04-29T17:52:03.024Z,31.52
2019-04-29T17:54:36.127Z,30.88
2019-04-29T17:57:28.121Z,30.50
2019-04-29T18:00:20.013Z,28.12
2019-04-29T18:03:09.007Z,28.10
2019-04-29T18:06:01.305Z,28.42
2019-04-29T18:08:38.636Z,28.27
2019-04-29T18:11:09.956Z,26.57
2019-04-29T18:13:41.232Z,31.87
2019-04-29T18:16:19.099Z,30.48
2019-04-29T18:18:58.545Z,28.17
2019-04-29T18:21:47.558Z,30.77
2019-04-29T18:24:45.228Z,30.30
2019-04-29T18:27:18.525Z,31.42
2019-04-29T18:29:49.841Z,29.57
2019-04-29T18:32:32.655Z,30.80
2019-04-29T18:34:55.933Z,26.68
2019-04-29T18:37:30.446Z,26.60
2019-04-29T18:40:02.433Z,24.67
2019-04-29T18:42:33.268Z,32.42
2019-04-29T18:45:05.143Z,26.25
2019-04-29T18:47:38.776Z,21.70
2019-04-29T18:50:10.191Z,22.85
2019-04-29T18:52:42.438Z,22.22
2019-04-29T18:55:13.670Z,22.77
2019-04-29T18:57:45.030Z,22.90
2019-04-29T19:00:19.872Z,31.17
2019-04-29T19:02:57.057Z,39.67
2019-04-29T19:05:36.276Z,18.05
2019-04-29T19:08:13.983Z,21.62
2019-04-29T19:10:40.671Z,16.97
2019-04-29T19:13:16.470Z,17.80
2019-04-29T19:15:48.432Z,16.48
2019-04-29T19:18:21.030Z,15.77
2019-04-29T19:20:54.071Z,15.68
2019-04-29T19:23:29.461Z,13.88
2019-04-29T19:25:58.472Z,18.17
2019-04-29T19:28:32.330Z,16.52
2019-04-29T19:31:06.739Z,16.77
2019-04-29T19:33:39.140Z,17.57
2019-04-29T19:36:13.228Z,14.07
2019-04-29T19:38:43.372Z,16.27
2019-04-29T19:41:16.210Z,15.87
2019-04-29T19:43:54.829Z,16.23
2019-04-29T19:46:24.274Z,12.57
2019-04-29T19:48:58.281Z,17.30
2019-04-29T19:51:27.452Z,15.08
2019-04-29T19:53:59.969Z,16.35
2019-04-29T19:56:31.377Z,12.55
2019-04-29T19:59:10.449Z,15.43
2019-04-29T20:01:37.929Z,16.07
2019-04-29T20:04:29.031Z,13.73
2019-04-29T20:07:06.661Z,16.02
2019-04-29T20:09:36.930Z,18.77
2019-04-29T20:12:12.798Z,16.87
2019-04-29T20:14:40.672Z,13.15
2019-04-29T20:17:31.811Z,16.90
2019-04-29T20:20:09.136Z,14.80
2019-04-29T20:22:43.475Z,13.50
2019-04-29T20:25:13.950Z,17.43
2019-04-29T20:27:45.971Z,13.48
2019-04-29T20:30:20.825Z,11.73
2019-04-29T20:32:51.387Z,14.98
2019-04-29T20:35:22.909Z,14.87
2019-04-29T20:37:56.658Z,14.30
2019-04-29T20:40:35.238Z,14.47
2019-04-29T20:43:01.041Z,12.93
2019-04-29T20:45:35.149Z,13.80
2019-04-29T20:48:06.662Z,16.12
2019-04-29T20:50:40.660Z,10.38
2019-04-29T20:53:19.511Z,9.46
2019-04-29T20:55:51.194Z,9.43
2019-04-29T20:58:23.532Z,8.83
2019-04-29T21:01:02.596Z,14.85
2019-04-29T21:03:32.146Z,8.20
2019-04-29T21:06:03.996Z,8.90
2019-04-29T21:08:35.505Z,8.40
2019-04-29T21:11:14.332Z,12.30
2019-04-29T21:13:58.407Z,8.20
2019-04-29T21:16:35.437Z,9.58
2019-04-29T21:19:09.100Z,8.20
2019-04-29T21:21:41.985Z,10.98
2019-04-29T21:24:17.501Z,9.20
2019-04-29T21:26:46.639Z,8.95
2019-04-29T21:29:19.547Z,6.87
2019-04-29T21:31:58.599Z,6.45
2019-04-29T21:34:29.663Z,9.13
2019-04-29T21:37:09.821Z,6.70
2019-04-29T21:39:46.826Z,11.28
2019-04-29T21:42:35.744Z,8.23
2019-04-29T21:45:08.822Z,8.55
2019-04-29T21:47:52.690Z,10.65
2019-04-29T21:50:11.290Z,9.10
2019-04-29T21:52:42.614Z,8.38
2019-04-29T21:55:15.926Z,6.00
2019-04-29T21:57:47.006Z,6.78
2019-04-29T22:00:24.074Z,8.40
2019-04-29T22:02:55.489Z,9.55
2019-04-29T22:05:29.353Z,6.75
2019-04-29T22:08:01.639Z,5.33
2019-04-29T22:10:35.124Z,8.68
2019-04-29T22:13:08.917Z,7.90
2019-04-29T22:15:43.232Z,5.95
2019-04-29T22:18:17.832Z,5.97
2019-04-29T22:20:47.829Z,8.83
2019-04-29T22:23:19.347Z,5.80
2019-04-29T22:25:50.730Z,6.55
2019-04-29T22:28:22.121Z,6.60
2019-04-29T22:30:54.920Z,5.80
2019-04-29T22:33:29.784Z,5.47
2019-04-29T22:35:59.450Z,6.00
2019-04-29T22:38:30.930Z,5.75
2019-04-29T22:41:05.068Z,6.05
2019-04-29T22:43:48.196Z,5.20
2019-04-29T22:46:20.568Z,6.08
2019-04-29T22:48:51.959Z,7.12
2019-04-29T22:51:23.179Z,7.13
2019-04-29T22:53:55.826Z,6.15
2019-04-29T22:56:27.844Z,5.50
2019-04-29T22:58:59.198Z,5.20
2019-04-29T23:01:30.660Z,5.40
2019-04-29T23:04:02.052Z,11.10
2019-04-29T23:06:33.317Z,5.00
2019-04-29T23:09:07.581Z,5.04
2019-04-29T23:11:40.824Z,5.40
2019-04-29T23:14:12.157Z,4.57
2019-04-29T23:16:43.387Z,8.80
2019-04-29T23:19:17.912Z,5.80
2019-04-29T23:22:10.448Z,4.90
2019-04-29T23:25:11.980Z,5.28
2019-04-29T23:27:43.225Z,6.92
2019-04-29T23:30:18.127Z,4.92
2019-04-29T23:32:49.400Z,5.20
2019-04-29T23:35:20.823Z,5.20
2019-04-29T23:37:52.475Z,6.25
2019-04-29T23:40:23.775Z,7.37
2019-04-29T23:42:55.413Z,5.67
2019-04-29T23:45:28.210Z,5.72
2019-04-29T23:47:59.502Z,7.00
2019-04-29T23:50:30.796Z,6.55
2019-04-29T23:53:02.044Z,8.05
2019-04-29T23:55:35.483Z,5.47
2019-04-29T23:58:23.852Z,8.10
